sensor_id;sensor_type;location;lat;lon;timestamp;pressure;altitude;pressure_sealevel;temperature;humidity
46007;BME280;31738;50.188;8.524;2023-02-04T00:00:36;100232.81;;;8.37;80.02
46007;BME280;31738;50.188;8.524;2023-02-04T00:03:11;100232.81;;;8.37;79.92
46007;BME280;31738;50.188;8.524;2023-02-04T00:06:58;100231.91;;;8.25;80.29
46007;BME280;31738;50.188;8.524;2023-02-04T00:09:24;100240.78;;;8.26;79.14
46007;BME280;31738;50.188;8.524;2023-02-04T00:11:50;100205.69;;;8.34;79.13
46007;BME280;31738;50.188;8.524;2023-02-04T00:14:23;100253.81;;;8.34;79.01
46007;BME280;31738;50.188;8.524;2023-02-04T00:16:52;100260.00;;;8.34;79.25
46007;BME280;31738;50.188;8.524;2023-02-04T00:19:17;100245.00;;;8.33;79.06
46007;BME280;31738;50.188;8.524;2023-02-04T00:21:43;100254.66;;;8.34;78.98
46007;BME280;31738;50.188;8.524;2023-02-04T00:24:08;100266.16;;;8.35;79.13
46007;BME280;31738;50.188;8.524;2023-02-04T00:26:34;100258.16;;;8.35;78.45
46007;BME280;31738;50.188;8.524;2023-02-04T00:29:14;100264.50;;;8.34;77.70
46007;BME280;31738;50.188;8.524;2023-02-04T00:31:42;100264.50;;;8.34;78.11
46007;BME280;31738;50.188;8.524;2023-02-04T00:34:36;100269.06;;;8.33;77.71
46007;BME280;31738;50.188;8.524;2023-02-04T00:37:06;100265.78;;;8.31;78.87
46007;BME280;31738;50.188;8.524;2023-02-04T00:39:45;100269.50;;;8.30;78.14
46007;BME280;31738;50.188;8.524;2023-02-04T00:42:11;100262.50;;;8.29;78.34
46007;BME280;31738;50.188;8.524;2023-02-04T00:44:42;100268.28;;;8.26;77.38
46007;BME280;31738;50.188;8.524;2023-02-04T00:47:32;100267.09;;;8.22;78.48
46007;BME280;31738;50.188;8.524;2023-02-04T00:49:58;100260.56;;;8.18;78.06
46007;BME280;31738;50.188;8.524;2023-02-04T00:52:34;100276.38;;;8.20;78.77
46007;BME280;31738;50.188;8.524;2023-02-04T00:55:02;100267.13;;;8.16;78.07
46007;BME280;31738;50.188;8.524;2023-02-04T00:57:28;100267.97;;;8.16;78.47
46007;BME280;31738;50.188;8.524;2023-02-04T00:59:53;100277.03;;;8.15;77.70
46007;BME280;31738;50.188;8.524;2023-02-04T01:02:28;100271.91;;;8.14;77.50
46007;BME280;31738;50.188;8.524;2023-02-04T01:05:28;100275.81;;;8.11;78.23
46007;BME280;31738;50.188;8.524;2023-02-04T01:07:53;100277.06;;;8.09;77.55
46007;BME280;31738;50.188;8.524;2023-02-04T01:10:19;100274.41;;;8.09;77.52
46007;BME280;31738;50.188;8.524;2023-02-04T01:12:45;100287.09;;;8.13;77.55
46007;BME280;31738;50.188;8.524;2023-02-04T01:18:55;100291.91;;;8.05;77.71
46007;BME280;31738;50.188;8.524;2023-02-04T01:21:22;100295.56;;;8.10;77.60
46007;BME280;31738;50.188;8.524;2023-02-04T01:23:48;100297.19;;;8.11;77.55
46007;BME280;31738;50.188;8.524;2023-02-04T01:26:15;100294.28;;;8.13;78.02
46007;BME280;31738;50.188;8.524;2023-02-04T01:28:46;100301.53;;;8.12;77.89
46007;BME280;31738;50.188;8.524;2023-02-04T01:31:12;100316.50;;;8.13;77.27
46007;BME280;31738;50.188;8.524;2023-02-04T01:33:38;100322.91;;;8.12;77.30
46007;BME280;31738;50.188;8.524;2023-02-04T01:36:06;100332.53;;;8.13;77.54
46007;BME280;31738;50.188;8.524;2023-02-04T01:38:33;100328.25;;;8.12;76.85
46007;BME280;31738;50.188;8.524;2023-02-04T01:41:12;100328.06;;;8.07;77.00
46007;BME280;31738;50.188;8.524;2023-02-04T01:43:37;100331.94;;;8.11;76.59
46007;BME280;31738;50.188;8.524;2023-02-04T01:46:03;100330.91;;;8.12;77.13
46007;BME280;31738;50.188;8.524;2023-02-04T01:48:29;100335.44;;;8.12;77.04
46007;BME280;31738;50.188;8.524;2023-02-04T01:51:08;100331.75;;;8.06;76.22
46007;BME280;31738;50.188;8.524;2023-02-04T01:53:36;100324.78;;;8.05;76.72
46007;BME280;31738;50.188;8.524;2023-02-04T01:56:14;100335.47;;;8.05;76.82
46007;BME280;31738;50.188;8.524;2023-02-04T01:59:20;100345.00;;;7.95;76.66
46007;BME280;31738;50.188;8.524;2023-02-04T02:05:04;100337.25;;;7.87;76.58
46007;BME280;31738;50.188;8.524;2023-02-04T02:07:30;100344.03;;;7.89;76.53
46007;BME280;31738;50.188;8.524;2023-02-04T02:09:56;100354.72;;;7.89;76.99
46007;BME280;31738;50.188;8.524;2023-02-04T02:12:29;100343.88;;;7.84;76.55
46007;BME280;31738;50.188;8.524;2023-02-04T02:14:58;100352.50;;;7.86;76.56
46007;BME280;31738;50.188;8.524;2023-02-04T02:17:24;100366.84;;;7.85;77.10
46007;BME280;31738;50.188;8.524;2023-02-04T02:20:17;100363.00;;;7.81;76.90
46007;BME280;31738;50.188;8.524;2023-02-04T02:25:35;100357.91;;;7.73;77.62
46007;BME280;31738;50.188;8.524;2023-02-04T02:28:12;100348.09;;;7.67;77.88
46007;BME280;31738;50.188;8.524;2023-02-04T02:30:40;100357.50;;;7.70;77.77
46007;BME280;31738;50.188;8.524;2023-02-04T02:33:12;100355.03;;;7.68;77.58
46007;BME280;31738;50.188;8.524;2023-02-04T02:39:23;100373.59;;;7.63;77.83
46007;BME280;31738;50.188;8.524;2023-02-04T02:41:50;100375.22;;;7.64;77.34
46007;BME280;31738;50.188;8.524;2023-02-04T02:44:16;100367.00;;;7.66;77.21
46007;BME280;31738;50.188;8.524;2023-02-04T02:46:42;100381.16;;;7.66;77.58
46007;BME280;31738;50.188;8.524;2023-02-04T02:49:15;100384.25;;;7.63;77.80
46007;BME280;31738;50.188;8.524;2023-02-04T02:51:42;100390.03;;;7.60;78.18
46007;BME280;31738;50.188;8.524;2023-02-04T02:54:23;100394.97;;;7.57;78.13
46007;BME280;31738;50.188;8.524;2023-02-04T02:56:53;100392.13;;;7.45;78.11
46007;BME280;31738;50.188;8.524;2023-02-04T02:59:21;100399.09;;;7.53;77.50
46007;BME280;31738;50.188;8.524;2023-02-04T03:01:50;100396.19;;;7.54;77.34
46007;BME280;31738;50.188;8.524;2023-02-04T03:04:19;100395.41;;;7.54;77.28
46007;BME280;31738;50.188;8.524;2023-02-04T03:06:45;100390.84;;;7.54;78.04
46007;BME280;31738;50.188;8.524;2023-02-04T03:09:11;100393.75;;;7.53;78.01
46007;BME280;31738;50.188;8.524;2023-02-04T03:11:37;100396.63;;;7.51;78.18
46007;BME280;31738;50.188;8.524;2023-02-04T03:14:03;100404.06;;;7.49;78.24
46007;BME280;31738;50.188;8.524;2023-02-04T03:16:31;100405.88;;;7.49;79.04
46007;BME280;31738;50.188;8.524;2023-02-04T03:18:59;100412.28;;;7.48;78.76
46007;BME280;31738;50.188;8.524;2023-02-04T03:21:25;100412.28;;;7.48;78.80
46007;BME280;31738;50.188;8.524;2023-02-04T03:23:51;100409.81;;;7.46;78.76
46007;BME280;31738;50.188;8.524;2023-02-04T03:29:44;100421.50;;;7.45;78.54
46007;BME280;31738;50.188;8.524;2023-02-04T03:32:10;100431.16;;;7.46;78.16
46007;BME280;31738;50.188;8.524;2023-02-04T03:34:35;100419.66;;;7.46;78.61
46007;BME280;31738;50.188;8.524;2023-02-04T03:37:01;100421.72;;;7.44;78.95
46007;BME280;31738;50.188;8.524;2023-02-04T03:39:26;100429.34;;;7.40;78.88
46007;BME280;31738;50.188;8.524;2023-02-04T03:41:52;100440.44;;;7.37;79.05
46007;BME280;31738;50.188;8.524;2023-02-04T03:44:17;100436.13;;;7.36;79.51
46007;BME280;31738;50.188;8.524;2023-02-04T03:46:43;100442.50;;;7.35;79.08
46007;BME280;31738;50.188;8.524;2023-02-04T03:49:09;100434.50;;;7.35;80.01
46007;BME280;31738;50.188;8.524;2023-02-04T03:51:34;100439.22;;;7.33;79.90
46007;BME280;31738;50.188;8.524;2023-02-04T03:54:00;100443.53;;;7.34;79.59
46007;BME280;31738;50.188;8.524;2023-02-04T03:56:39;100441.88;;;7.33;80.31
46007;BME280;31738;50.188;8.524;2023-02-04T03:59:07;100437.59;;;7.32;80.29
46007;BME280;31738;50.188;8.524;2023-02-04T04:01:33;100436.13;;;7.30;80.06
46007;BME280;31738;50.188;8.524;2023-02-04T04:04:00;100451.56;;;7.28;80.08
46007;BME280;31738;50.188;8.524;2023-02-04T04:06:51;100458.72;;;7.27;79.75
46007;BME280;31738;50.188;8.524;2023-02-04T04:10:39;100463.69;;;7.17;80.00
46007;BME280;31738;50.188;8.524;2023-02-04T04:13:04;100460.41;;;7.22;79.97
46007;BME280;31738;50.188;8.524;2023-02-04T04:15:31;100460.78;;;7.25;80.17
46007;BME280;31738;50.188;8.524;2023-02-04T04:17:57;100464.50;;;7.24;80.44
46007;BME280;31738;50.188;8.524;2023-02-04T04:20:22;100464.50;;;7.24;80.62
46007;BME280;31738;50.188;8.524;2023-02-04T04:22:50;100460.78;;;7.25;80.80
46007;BME280;31738;50.188;8.524;2023-02-04T04:25:16;100463.66;;;7.24;80.48
46007;BME280;31738;50.188;8.524;2023-02-04T04:27:41;100455.88;;;7.22;80.41
46007;BME280;31738;50.188;8.524;2023-02-04T04:30:07;100445.19;;;7.22;81.06
46007;BME280;31738;50.188;8.524;2023-02-04T04:32:33;100468.00;;;7.18;80.64
46007;BME280;31738;50.188;8.524;2023-02-04T04:34:59;100461.25;;;7.16;81.23
46007;BME280;31738;50.188;8.524;2023-02-04T04:37:24;100449.75;;;7.15;80.72
46007;BME280;31738;50.188;8.524;2023-02-04T04:39:49;100445.84;;;7.11;81.37
46007;BME280;31738;50.188;8.524;2023-02-04T04:42:15;100446.88;;;7.10;81.14
46007;BME280;31738;50.188;8.524;2023-02-04T04:44:40;100446.28;;;7.08;81.31
46007;BME280;31738;50.188;8.524;2023-02-04T04:47:06;100454.69;;;7.05;81.25
46007;BME280;31738;50.188;8.524;2023-02-04T04:49:31;100450.59;;;7.03;81.28
46007;BME280;31738;50.188;8.524;2023-02-04T04:51:57;100455.91;;;7.03;81.43
46007;BME280;31738;50.188;8.524;2023-02-04T04:54:22;100448.75;;;7.03;81.35
46007;BME280;31738;50.188;8.524;2023-02-04T04:56:48;100453.47;;;7.01;81.37
46007;BME280;31738;50.188;8.524;2023-02-04T04:59:13;100462.50;;;7.00;81.48
46007;BME280;31738;50.188;8.524;2023-02-04T05:01:39;100446.91;;;6.97;81.42
46007;BME280;31738;50.188;8.524;2023-02-04T05:04:04;100454.72;;;6.92;81.37
46007;BME280;31738;50.188;8.524;2023-02-04T05:06:30;100460.47;;;6.89;81.54
46007;BME280;31738;50.188;8.524;2023-02-04T05:08:55;100466.22;;;6.86;81.64
46007;BME280;31738;50.188;8.524;2023-02-04T05:11:21;100468.66;;;6.81;82.11
46007;BME280;31738;50.188;8.524;2023-02-04T05:13:49;100470.13;;;6.77;82.20
46007;BME280;31738;50.188;8.524;2023-02-04T05:16:27;100471.16;;;6.76;81.67
46007;BME280;31738;50.188;8.524;2023-02-04T05:18:52;100467.44;;;6.77;81.81
46007;BME280;31738;50.188;8.524;2023-02-04T05:21:18;100468.47;;;6.76;81.66
46007;BME280;31738;50.188;8.524;2023-02-04T05:23:43;100475.03;;;6.80;81.62
46007;BME280;31738;50.188;8.524;2023-02-04T05:26:14;100473.19;;;6.80;81.48
46007;BME280;31738;50.188;8.524;2023-02-04T05:28:39;100478.91;;;6.84;81.52
46007;BME280;31738;50.188;8.524;2023-02-04T05:31:05;100476.25;;;6.84;81.46
46007;BME280;31738;50.188;8.524;2023-02-04T05:33:30;100480.56;;;6.85;81.23
46007;BME280;31738;50.188;8.524;2023-02-04T05:35:56;100486.72;;;6.85;81.90
46007;BME280;31738;50.188;8.524;2023-02-04T05:38:21;100483.25;;;6.85;81.79
46007;BME280;31738;50.188;8.524;2023-02-04T05:40:47;100486.50;;;6.87;81.80
46007;BME280;31738;50.188;8.524;2023-02-04T05:43:12;100476.25;;;6.90;81.05
46007;BME280;31738;50.188;8.524;2023-02-04T05:45:38;100479.34;;;6.94;80.94
46007;BME280;31738;50.188;8.524;2023-02-04T05:48:03;100477.69;;;6.93;81.46
46007;BME280;31738;50.188;8.524;2023-02-04T05:50:32;100490.38;;;6.97;80.69
46007;BME280;31738;50.188;8.524;2023-02-04T05:53:07;100496.56;;;6.98;81.28
46007;BME280;31738;50.188;8.524;2023-02-04T05:55:58;100508.84;;;6.99;81.49
46007;BME280;31738;50.188;8.524;2023-02-04T05:58:25;100512.16;;;7.01;81.61
46007;BME280;31738;50.188;8.524;2023-02-04T06:01:01;100500.06;;;7.05;80.79
46007;BME280;31738;50.188;8.524;2023-02-04T06:03:29;100509.28;;;7.09;80.91
46007;BME280;31738;50.188;8.524;2023-02-04T06:05:55;100511.94;;;7.09;80.77
46007;BME280;31738;50.188;8.524;2023-02-04T06:08:21;100517.91;;;7.11;80.92
46007;BME280;31738;50.188;8.524;2023-02-04T06:10:49;100519.53;;;7.12;80.63
46007;BME280;31738;50.188;8.524;2023-02-04T06:13:14;100535.13;;;7.15;80.66
46007;BME280;31738;50.188;8.524;2023-02-04T06:19:49;100534.31;;;6.95;80.60
46007;BME280;31738;50.188;8.524;2023-02-04T06:22:14;100537.41;;;6.92;81.14
46007;BME280;31738;50.188;8.524;2023-02-04T06:24:39;100541.91;;;6.98;80.78
46007;BME280;31738;50.188;8.524;2023-02-04T06:27:05;100532.66;;;7.00;81.21
46007;BME280;31738;50.188;8.524;2023-02-04T06:29:30;100522.19;;;7.06;81.33
46007;BME280;31738;50.188;8.524;2023-02-04T06:31:56;100532.66;;;7.07;81.36
46007;BME280;31738;50.188;8.524;2023-02-04T06:34:21;100529.78;;;7.09;80.94
46007;BME280;31738;50.188;8.524;2023-02-04T06:36:47;100518.31;;;7.08;80.77
46007;BME280;31738;50.188;8.524;2023-02-04T06:39:17;100526.13;;;7.10;81.14
46007;BME280;31738;50.188;8.524;2023-02-04T06:42:34;100521.19;;;7.07;80.97
46007;BME280;31738;50.188;8.524;2023-02-04T06:44:59;100519.13;;;7.09;80.92
46007;BME280;31738;50.188;8.524;2023-02-04T06:47:25;100519.94;;;7.09;80.78
46007;BME280;31738;50.188;8.524;2023-02-04T06:49:50;100527.53;;;7.12;80.48
46007;BME280;31738;50.188;8.524;2023-02-04T06:52:16;100539.03;;;7.13;80.63
46007;BME280;31738;50.188;8.524;2023-02-04T06:54:41;100536.16;;;7.14;80.81
46007;BME280;31738;50.188;8.524;2023-02-04T06:57:07;100538.63;;;7.16;80.90
46007;BME280;31738;50.188;8.524;2023-02-04T06:59:34;100542.72;;;7.18;80.15
46007;BME280;31738;50.188;8.524;2023-02-04T07:02:00;100545.38;;;7.18;80.80
46007;BME280;31738;50.188;8.524;2023-02-04T07:04:26;100563.03;;;7.19;80.11
46007;BME280;31738;50.188;8.524;2023-02-04T07:06:51;100562.03;;;7.20;80.00
46007;BME280;31738;50.188;8.524;2023-02-04T07:09:17;100573.50;;;7.21;80.44
46007;BME280;31738;50.188;8.524;2023-02-04T07:11:42;100581.28;;;7.22;80.54
46007;BME280;31738;50.188;8.524;2023-02-04T07:14:39;100587.66;;;7.21;80.11
46007;BME280;31738;50.188;8.524;2023-02-04T07:17:04;100595.06;;;7.19;79.98
46007;BME280;31738;50.188;8.524;2023-02-04T07:19:30;100597.31;;;7.22;80.16
46007;BME280;31738;50.188;8.524;2023-02-04T07:21:55;100597.94;;;7.24;80.43
46007;BME280;31738;50.188;8.524;2023-02-04T07:24:22;100595.88;;;7.26;80.61
46007;BME280;31738;50.188;8.524;2023-02-04T07:26:48;100611.91;;;7.26;80.45
46007;BME280;31738;50.188;8.524;2023-02-04T07:29:14;100616.41;;;7.26;80.77
46007;BME280;31738;50.188;8.524;2023-02-04T07:31:39;100612.69;;;7.27;81.19
46007;BME280;31738;50.188;8.524;2023-02-04T07:34:05;100615.38;;;7.27;81.35
46007;BME280;31738;50.188;8.524;2023-02-04T07:36:30;100611.91;;;7.26;81.37
46007;BME280;31738;50.188;8.524;2023-02-04T07:38:56;100612.69;;;7.27;81.98
46007;BME280;31738;50.188;8.524;2023-02-04T07:41:21;100602.03;;;7.27;81.85
46007;BME280;31738;50.188;8.524;2023-02-04T07:43:46;100595.88;;;7.26;82.26
46007;BME280;31738;50.188;8.524;2023-02-04T07:46:12;100606.16;;;7.23;82.24
46007;BME280;31738;50.188;8.524;2023-02-04T07:51:35;100611.69;;;7.21;82.97
46007;BME280;31738;50.188;8.524;2023-02-04T07:54:01;100613.31;;;7.22;83.14
46007;BME280;31738;50.188;8.524;2023-02-04T07:56:26;100613.94;;;7.24;83.59
46007;BME280;31738;50.188;8.524;2023-02-04T07:58:55;100609.63;;;7.30;83.74
46007;BME280;31738;50.188;8.524;2023-02-04T08:01:46;100618.47;;;7.30;83.07
46007;BME280;31738;50.188;8.524;2023-02-04T08:04:12;100615.59;;;7.32;83.38
46007;BME280;31738;50.188;8.524;2023-02-04T08:06:38;100616.41;;;7.39;83.47
46007;BME280;31738;50.188;8.524;2023-02-04T08:09:03;100616.41;;;7.45;83.35
46007;BME280;31738;50.188;8.524;2023-02-04T08:11:29;100621.94;;;7.50;82.66
46007;BME280;31738;50.188;8.524;2023-02-04T08:13:55;100623.16;;;7.54;82.36
46007;BME280;31738;50.188;8.524;2023-02-04T08:16:29;100632.41;;;7.58;82.34
46007;BME280;31738;50.188;8.524;2023-02-04T08:20:12;100644.94;;;7.64;82.13
46007;BME280;31738;50.188;8.524;2023-02-04T08:22:38;100654.19;;;7.62;82.39
46007;BME280;31738;50.188;8.524;2023-02-04T08:25:04;100646.78;;;7.70;82.18
46007;BME280;31738;50.188;8.524;2023-02-04T08:27:30;100649.66;;;7.75;81.61
46007;BME280;31738;50.188;8.524;2023-02-04T08:29:55;100656.00;;;7.81;81.68
46007;BME280;31738;50.188;8.524;2023-02-04T08:32:21;100670.41;;;7.86;81.67
46007;BME280;31738;50.188;8.524;2023-02-04T08:34:46;100675.91;;;7.91;81.24
46007;BME280;31738;50.188;8.524;2023-02-04T08:37:13;100678.78;;;7.96;81.01
46007;BME280;31738;50.188;8.524;2023-02-04T08:39:39;100687.00;;;8.01;80.42
46007;BME280;31738;50.188;8.524;2023-02-04T08:42:08;100676.91;;;8.10;80.42
46007;BME280;31738;50.188;8.524;2023-02-04T08:44:34;100682.88;;;8.18;80.22
46007;BME280;31738;50.188;8.524;2023-02-04T08:46:59;100692.31;;;8.27;80.59
46007;BME280;31738;50.188;8.524;2023-02-04T08:49:25;100697.63;;;8.34;80.03
46007;BME280;31738;50.188;8.524;2023-02-04T08:51:51;100702.56;;;8.37;79.45
46007;BME280;31738;50.188;8.524;2023-02-04T08:54:16;100708.31;;;8.40;80.18
46007;BME280;31738;50.188;8.524;2023-02-04T08:56:42;100707.50;;;8.40;78.83
46007;BME280;31738;50.188;8.524;2023-02-04T08:59:38;100720.06;;;8.39;77.53
46007;BME280;31738;50.188;8.524;2023-02-04T09:02:04;100724.16;;;8.35;78.89
46007;BME280;31738;50.188;8.524;2023-02-04T09:04:30;100723.56;;;8.33;79.29
46007;BME280;31738;50.188;8.524;2023-02-04T09:07:14;100722.31;;;8.29;79.08
46007;BME280;31738;50.188;8.524;2023-02-04T09:09:40;100722.31;;;8.29;78.95
46007;BME280;31738;50.188;8.524;2023-02-04T09:12:08;100730.53;;;8.34;79.12
46007;BME280;31738;50.188;8.524;2023-02-04T09:15:02;100742.06;;;8.41;78.74
46007;BME280;31738;50.188;8.524;2023-02-04T09:17:28;100743.69;;;8.42;78.89
46007;BME280;31738;50.188;8.524;2023-02-04T09:19:53;100744.91;;;8.46;78.97
46007;BME280;31738;50.188;8.524;2023-02-04T09:22:19;100753.97;;;8.52;79.14
46007;BME280;31738;50.188;8.524;2023-02-04T09:24:44;100752.31;;;8.51;78.91
46007;BME280;31738;50.188;8.524;2023-02-04T09:27:10;100750.47;;;8.51;78.77
46007;BME280;31738;50.188;8.524;2023-02-04T09:29:35;100750.25;;;8.46;78.09
46007;BME280;31738;50.188;8.524;2023-02-04T09:32:01;100751.09;;;8.47;78.31
46007;BME280;31738;50.188;8.524;2023-02-04T09:34:26;100763.63;;;8.46;78.09
46007;BME280;31738;50.188;8.524;2023-02-04T09:36:52;100766.72;;;8.43;77.96
46007;BME280;31738;50.188;8.524;2023-02-04T09:39:17;100766.91;;;8.48;78.60
46007;BME280;31738;50.188;8.524;2023-02-04T09:41:42;100779.25;;;8.49;78.05
46007;BME280;31738;50.188;8.524;2023-02-04T09:44:15;100776.00;;;8.47;77.97
46007;BME280;31738;50.188;8.524;2023-02-04T09:46:46;100781.94;;;8.49;77.88
46007;BME280;31738;50.188;8.524;2023-02-04T09:49:12;100788.94;;;8.50;77.64
46007;BME280;31738;50.188;8.524;2023-02-04T09:51:38;100779.88;;;8.51;78.39
46007;BME280;31738;50.188;8.524;2023-02-04T09:54:15;100788.94;;;8.50;77.93
46007;BME280;31738;50.188;8.524;2023-02-04T09:56:41;100797.97;;;8.49;77.53
46007;BME280;31738;50.188;8.524;2023-02-04T09:59:15;100802.69;;;8.54;77.19
46007;BME280;31738;50.188;8.524;2023-02-04T10:01:41;100813.59;;;8.52;77.50
46007;BME280;31738;50.188;8.524;2023-02-04T10:04:11;100818.53;;;8.55;76.73
46007;BME280;31738;50.188;8.524;2023-02-04T10:06:38;100818.13;;;8.58;77.11
46007;BME280;31738;50.188;8.524;2023-02-04T10:09:04;100830.47;;;8.59;77.01
46007;BME280;31738;50.188;8.524;2023-02-04T10:11:32;100826.75;;;8.60;77.33
46007;BME280;31738;50.188;8.524;2023-02-04T10:13:59;100829.22;;;8.62;76.46
46007;BME280;31738;50.188;8.524;2023-02-04T10:16:29;100832.94;;;8.68;77.20
46007;BME280;31738;50.188;8.524;2023-02-04T10:19:03;100835.38;;;8.76;77.46
46007;BME280;31738;50.188;8.524;2023-02-04T10:21:31;100835.56;;;8.81;77.03
46007;BME280;31738;50.188;8.524;2023-02-04T10:23:58;100830.44;;;8.73;77.75
46007;BME280;31738;50.188;8.524;2023-02-04T10:26:27;100827.59;;;8.68;78.34
46007;BME280;31738;50.188;8.524;2023-02-04T10:28:58;100821.63;;;8.65;78.71
46007;BME280;31738;50.188;8.524;2023-02-04T10:31:37;100823.72;;;8.50;80.24
46007;BME280;31738;50.188;8.524;2023-02-04T10:34:14;100817.69;;;8.61;79.81
46007;BME280;31738;50.188;8.524;2023-02-04T10:36:43;100812.94;;;8.77;80.16
46007;BME280;31738;50.188;8.524;2023-02-04T10:39:14;100812.94;;;8.77;79.87
46007;BME280;31738;50.188;8.524;2023-02-04T10:41:46;100818.72;;;8.74;79.51
46007;BME280;31738;50.188;8.524;2023-02-04T10:44:13;100811.31;;;8.69;79.93
46007;BME280;31738;50.188;8.524;2023-02-04T10:46:39;100817.75;;;8.48;79.83
46007;BME280;31738;50.188;8.524;2023-02-04T10:49:16;100823.09;;;8.55;80.41
46007;BME280;31738;50.188;8.524;2023-02-04T10:51:42;100810.91;;;8.59;80.35
46007;BME280;31738;50.188;8.524;2023-02-04T10:54:11;100814.22;;;8.54;80.56
46007;BME280;31738;50.188;8.524;2023-02-04T10:59:44;100809.84;;;8.73;80.50
46007;BME280;31738;50.188;8.524;2023-02-04T11:04:49;100807.13;;;8.93;80.06
46007;BME280;31738;50.188;8.524;2023-02-04T11:07:14;100804.81;;;9.03;79.51
46007;BME280;31738;50.188;8.524;2023-02-04T11:09:41;100806.47;;;9.04;79.45
46007;BME280;31738;50.188;8.524;2023-02-04T11:12:19;100798.75;;;9.20;79.80
46007;BME280;31738;50.188;8.524;2023-02-04T11:14:54;100812.53;;;9.30;78.39
46007;BME280;31738;50.188;8.524;2023-02-04T11:17:20;100807.97;;;9.31;79.21
46007;BME280;31738;50.188;8.524;2023-02-04T11:19:46;100809.00;;;9.30;78.34
46007;BME280;31738;50.188;8.524;2023-02-04T11:22:23;100814.56;;;9.35;78.56
46007;BME280;31738;50.188;8.524;2023-02-04T11:25:00;100821.13;;;9.39;77.70
46007;BME280;31738;50.188;8.524;2023-02-04T11:27:37;100820.69;;;9.42;77.98
46007;BME280;31738;50.188;8.524;2023-02-04T11:30:05;100827.34;;;9.33;77.50
46007;BME280;31738;50.188;8.524;2023-02-04T11:32:35;100822.19;;;9.31;77.46
46007;BME280;31738;50.188;8.524;2023-02-04T11:35:20;100824.88;;;9.25;77.40
46007;BME280;31738;50.188;8.524;2023-02-04T11:37:46;100834.44;;;9.08;77.04
46007;BME280;31738;50.188;8.524;2023-02-04T11:40:39;100838.16;;;9.07;77.70
46007;BME280;31738;50.188;8.524;2023-02-04T11:43:14;100843.72;;;9.05;77.66
46007;BME280;31738;50.188;8.524;2023-02-04T11:45:41;100843.31;;;9.02;77.74
46007;BME280;31738;50.188;8.524;2023-02-04T11:48:17;100836.31;;;9.01;77.26
46007;BME280;31738;50.188;8.524;2023-02-04T11:50:55;100845.19;;;9.01;77.10
46007;BME280;31738;50.188;8.524;2023-02-04T11:53:23;100836.94;;;9.03;77.15
46007;BME280;31738;50.188;8.524;2023-02-04T11:55:52;100835.28;;;9.02;76.77
46007;BME280;31738;50.188;8.524;2023-02-04T11:58:19;100837.53;;;9.05;76.47
46007;BME280;31738;50.188;8.524;2023-02-04T12:00:45;100832.81;;;9.07;76.51
46007;BME280;31738;50.188;8.524;2023-02-04T12:03:44;100837.72;;;9.10;76.70
46007;BME280;31738;50.188;8.524;2023-02-04T12:06:23;100841.03;;;9.12;76.85
46007;BME280;31738;50.188;8.524;2023-02-04T12:08:48;100847.59;;;9.09;76.14
46007;BME280;31738;50.188;8.524;2023-02-04T12:11:26;100851.75;;;9.12;76.18
46007;BME280;31738;50.188;8.524;2023-02-04T12:14:05;100856.06;;;9.06;75.15
46007;BME280;31738;50.188;8.524;2023-02-04T12:16:59;100856.28;;;9.05;75.69
46007;BME280;31738;50.188;8.524;2023-02-04T12:19:25;100858.38;;;9.03;75.11
46007;BME280;31738;50.188;8.524;2023-02-04T12:21:51;100861.47;;;9.00;75.26
46007;BME280;31738;50.188;8.524;2023-02-04T12:24:16;100869.50;;;9.00;74.72
46007;BME280;31738;50.188;8.524;2023-02-04T12:26:42;100864.13;;;9.00;75.29
46007;BME280;31738;50.188;8.524;2023-02-04T12:29:07;100878.94;;;9.02;74.95
46007;BME280;31738;50.188;8.524;2023-02-04T12:31:33;100873.59;;;9.02;75.21
46007;BME280;31738;50.188;8.524;2023-02-04T12:33:59;100873.16;;;9.05;74.51
46007;BME280;31738;50.188;8.524;2023-02-04T12:36:25;100876.84;;;9.11;74.31
46007;BME280;31738;50.188;8.524;2023-02-04T12:38:54;100866.34;;;9.16;75.11
46007;BME280;31738;50.188;8.524;2023-02-04T12:41:20;100873.09;;;9.18;74.92
46007;BME280;31738;50.188;8.524;2023-02-04T12:43:45;100870.06;;;9.15;74.34
46007;BME280;31738;50.188;8.524;2023-02-04T12:46:15;100883.88;;;9.12;74.39
46007;BME280;31738;50.188;8.524;2023-02-04T12:48:40;100886.75;;;9.04;74.00
46007;BME280;31738;50.188;8.524;2023-02-04T12:51:06;100889.66;;;9.09;74.72
46007;BME280;31738;50.188;8.524;2023-02-04T12:53:32;100887.13;;;9.14;74.42
46007;BME280;31738;50.188;8.524;2023-02-04T12:55:57;100890.00;;;9.19;74.41
46007;BME280;31738;50.188;8.524;2023-02-04T12:58:23;100892.47;;;9.20;74.18
46007;BME280;31738;50.188;8.524;2023-02-04T13:00:48;100897.81;;;9.27;73.82
46007;BME280;31738;50.188;8.524;2023-02-04T13:03:14;100892.88;;;9.24;73.72
46007;BME280;31738;50.188;8.524;2023-02-04T13:05:39;100894.50;;;9.25;74.10
46007;BME280;31738;50.188;8.524;2023-02-04T13:08:05;100904.59;;;9.29;73.58
46007;BME280;31738;50.188;8.524;2023-02-04T13:10:30;100896.78;;;9.28;73.30
46007;BME280;31738;50.188;8.524;2023-02-04T13:12:55;100900.28;;;9.22;72.64
46007;BME280;31738;50.188;8.524;2023-02-04T13:15:21;100901.13;;;9.22;72.79
46007;BME280;31738;50.188;8.524;2023-02-04T13:17:47;100900.28;;;9.22;72.97
46007;BME280;31738;50.188;8.524;2023-02-04T13:20:12;100903.41;;;9.12;72.12
46007;BME280;31738;50.188;8.524;2023-02-04T13:22:38;100904.03;;;9.08;72.16
46007;BME280;31738;50.188;8.524;2023-02-04T13:25:04;100901.97;;;9.10;72.87
46007;BME280;31738;50.188;8.524;2023-02-04T13:27:30;100900.34;;;9.09;72.48
46007;BME280;31738;50.188;8.524;2023-02-04T13:29:56;100896.00;;;9.08;72.65
46007;BME280;31738;50.188;8.524;2023-02-04T13:32:22;100895.78;;;9.09;73.10
46007;BME280;31738;50.188;8.524;2023-02-04T13:34:47;100897.66;;;9.09;73.10
46007;BME280;31738;50.188;8.524;2023-02-04T13:37:13;100893.94;;;9.10;73.19
46007;BME280;31738;50.188;8.524;2023-02-04T13:39:38;100893.34;;;9.08;73.21
46007;BME280;31738;50.188;8.524;2023-02-04T13:42:04;100885.09;;;9.09;72.95